Time;durP1;ratioP1;P1;durP2;ratioP2;P2;SDS_P1;SDS_P2;PMS_P1;PMS_P2;Temp;Humidity;BMP_temperature;BMP_pressure;BME280_temperature;BME280_humidity;BME280_pressure;Samples;Min_cycle;Max_cycle;Signal;HPM_P1;HPM_P2
2021/01/14 00:00:50;;;;;;;23.40;14.10;;;12.90;2201.60;;;;;;4915927;29;20031;-70
2021/01/14 00:03:16;;;;;;;20.35;12.55;;;12.90;2201.60;;;;;;4917730;29;20118;-69
2021/01/14 00:05:42;;;;;;;18.88;11.68;;;0.00;2201.60;;;;;;4916097;29;20038;-69
2021/01/14 00:08:11;;;;;;;18.52;12.93;;;0.00;2201.60;;;;;;4903154;29;20059;-68
2021/01/14 00:10:38;;;;;;;21.75;12.98;;;0.10;2176.00;;;;;;4915637;29;20084;-69
2021/01/14 00:13:09;;;;;;;31.70;18.13;;;0.20;2201.60;;;;;;4915555;29;20040;-70
2021/01/14 00:15:36;;;;;;;30.00;18.20;;;0.20;2201.60;;;;;;4916642;29;20368;-70
2021/01/14 00:18:02;;;;;;;22.85;13.38;;;0.30;2201.60;;;;;;4917150;29;20036;-70
2021/01/14 00:20:28;;;;;;;27.90;15.98;;;0.30;2201.60;;;;;;4915683;29;20044;-69
2021/01/14 00:22:54;;;;;;;27.33;15.98;;;0.30;2201.60;;;;;;4916648;29;20398;-69
2021/01/14 00:25:20;;;;;;;24.17;13.00;;;0.40;2176.00;;;;;;4916281;29;20076;-70
2021/01/14 00:27:47;;;;;;;15.32;9.55;;;0.40;2201.60;;;;;;4917393;29;20036;-70
2021/01/14 00:30:16;;;;;;;18.48;11.20;;;0.40;2201.60;;;;;;4915802;29;20060;-69
2021/01/14 00:32:42;;;;;;;18.17;11.93;;;0.40;2201.60;;;;;;4916976;29;20028;-69
2021/01/14 00:35:08;;;;;;;19.52;11.40;;;0.40;2176.00;;;;;;4915061;29;20079;-70
2021/01/14 00:37:56;;;;;;;16.77;10.07;;;0.50;2150.40;;;;;;4915579;29;20401;-70
2021/01/14 00:40:30;;;;;;;13.93;9.40;;;0.50;2150.40;;;;;;4916366;29;20028;-69
2021/01/14 00:43:12;;;;;;;13.70;8.32;;;0.50;2201.60;;;;;;4916494;29;20039;-69
2021/01/14 00:45:38;;;;;;;11.93;7.10;;;0.60;2150.40;;;;;;4914442;29;20719;-69
2021/01/14 00:48:04;;;;;;;14.30;9.25;;;0.60;2176.00;;;;;;4916968;29;20106;-67
2021/01/14 00:50:31;;;;;;;19.15;10.98;;;0.60;2150.40;;;;;;4915892;29;20457;-70
2021/01/14 00:52:57;;;;;;;17.90;10.55;;;0.70;2150.40;;;;;;4916679;29;20024;-70
2021/01/14 00:55:23;;;;;;;15.82;10.27;;;0.70;2201.60;;;;;;4916351;29;20103;-70
2021/01/14 00:57:48;;;;;;;12.35;8.25;;;0.70;2124.80;;;;;;4915933;29;20028;-69
2021/01/14 01:00:17;;;;;;;14.52;8.88;;;0.70;2124.80;;;;;;4909252;29;20047;-70
2021/01/14 01:02:44;;;;;;;11.55;7.82;;;0.70;2150.40;;;;;;4907792;29;20044;-70
2021/01/14 01:05:11;;;;;;;10.68;6.88;;;0.70;2150.40;;;;;;4916430;29;20028;-70
2021/01/14 01:07:37;;;;;;;12.90;7.43;;;0.70;2099.20;;;;;;4914893;29;20039;-72
2021/01/14 01:10:05;;;;;;;14.75;8.20;;;0.70;2201.60;;;;;;4916842;29;20442;-70
2021/01/14 01:12:31;;;;;;;15.43;8.93;;;0.60;2150.40;;;;;;4916500;29;20490;-70
2021/01/14 01:14:57;;;;;;;14.98;7.78;;;0.60;2150.40;;;;;;4915709;29;20028;-68
2021/01/14 01:17:24;;;;;;;12.27;7.70;;;0.60;2150.40;;;;;;4916509;29;20083;-70
2021/01/14 01:19:49;;;;;;;17.10;8.75;;;0.60;2150.40;;;;;;4915716;29;20055;-69
2021/01/14 01:22:18;;;;;;;14.07;8.20;;;0.50;2150.40;;;;;;4915114;29;20115;-69
2021/01/14 01:24:44;;;;;;;12.73;7.57;;;0.50;2176.00;;;;;;4915165;29;20027;-70
2021/01/14 01:27:10;;;;;;;15.63;8.18;;;0.50;2176.00;;;;;;4916580;29;20505;-71
2021/01/14 01:29:35;;;;;;;12.23;7.53;;;0.40;2201.60;;;;;;4915345;29;20028;-70
2021/01/14 01:32:01;;;;;;;13.07;7.43;;;0.30;2150.40;;;;;;4915461;29;20027;-70
2021/01/14 01:34:27;;;;;;;13.13;7.72;;;0.30;2124.80;;;;;;4913746;29;20024;-70
2021/01/14 01:36:52;;;;;;;15.68;8.25;;;0.20;2124.80;;;;;;4915112;29;20474;-70
2021/01/14 01:39:18;;;;;;;13.00;7.28;;;0.20;2150.40;;;;;;4916055;29;20128;-70
2021/01/14 01:41:45;;;;;;;13.35;8.00;;;0.20;2150.40;;;;;;4914697;29;20091;-70
2021/01/14 01:44:11;;;;;;;12.10;7.10;;;0.20;2150.40;;;;;;4914568;29;20379;-71
2021/01/14 01:46:37;;;;;;;14.77;7.55;;;0.20;2150.40;;;;;;4915261;29;20044;-70
2021/01/14 01:49:03;;;;;;;12.23;7.30;;;0.20;2099.20;;;;;;4915712;29;20059;-70
2021/01/14 01:51:36;;;;;;;12.90;7.10;;;0.10;2124.80;;;;;;4913780;29;20497;-69
2021/01/14 01:54:03;;;;;;;14.25;7.10;;;0.10;2124.80;;;;;;4914219;29;20028;-69
2021/01/14 01:56:30;;;;;;;16.17;7.85;;;0.10;2124.80;;;;;;4895656;29;20043;-70
2021/01/14 01:58:57;;;;;;;16.13;9.15;;;0.00;2150.40;;;;;;4915601;29;20490;-68
2021/01/14 02:01:24;;;;;;;20.25;9.52;;;0.10;2099.20;;;;;;4914878;29;20043;-69
2021/01/14 02:03:50;;;;;;;17.98;9.90;;;0.10;2099.20;;;;;;4915312;29;20040;-70
2021/01/14 02:06:16;;;;;;;16.73;9.20;;;0.20;2099.20;;;;;;4913655;29;20035;-69
2021/01/14 02:08:44;;;;;;;17.42;8.88;;;0.20;2099.20;;;;;;4914675;29;20504;-68
2021/01/14 02:11:18;;;;;;;16.58;9.18;;;0.30;2048.00;;;;;;4914587;29;20048;-68
2021/01/14 02:14:07;;;;;;;21.85;10.80;;;0.40;2048.00;;;;;;4916378;29;20032;-72
2021/01/14 02:16:37;;;;;;;24.08;13.40;;;0.50;2022.40;;;;;;4915655;29;20098;-70
2021/01/14 02:19:10;;;;;;;20.23;11.40;;;0.60;2022.40;;;;;;4915028;29;20025;-69
2021/01/14 02:21:37;;;;;;;18.63;9.85;;;0.60;2073.60;;;;;;4915071;29;20464;-70
2021/01/14 02:24:13;;;;;;;15.20;8.45;;;0.70;1996.80;;;;;;4915403;29;20116;-71
2021/01/14 02:26:42;;;;;;;18.27;10.73;;;0.70;2073.60;;;;;;4914518;29;20024;-69
2021/01/14 02:29:08;;;;;;;13.73;8.70;;;0.70;2048.00;;;;;;4915013;29;20443;-71
2021/01/14 02:31:34;;;;;;;17.08;8.38;;;0.70;2073.60;;;;;;4914580;29;20123;-69
2021/01/14 02:33:59;;;;;;;15.82;9.18;;;0.70;2022.40;;;;;;4915064;29;20063;-67
2021/01/14 02:36:27;;;;;;;16.40;8.98;;;0.70;2048.00;;;;;;4913934;29;20032;-69
2021/01/14 02:38:53;;;;;;;16.13;8.02;;;0.80;1996.80;;;;;;4914828;29;20115;-69
2021/01/14 02:41:20;;;;;;;16.58;9.10;;;0.70;1996.80;;;;;;4914863;29;20111;-68
2021/01/14 02:43:46;;;;;;;16.27;8.02;;;0.70;1945.60;;;;;;4915374;29;20093;-69
2021/01/14 02:46:12;;;;;;;17.20;8.05;;;0.70;1971.20;;;;;;4914121;29;20083;-70
2021/01/14 02:48:43;;;;;;;21.98;11.00;;;0.60;1971.20;;;;;;4907324;29;20135;-70
2021/01/14 02:51:15;;;;;;;15.80;8.68;;;12.90;1996.80;;;;;;4905638;29;20077;-70
2021/01/14 02:53:41;;;;;;;14.40;7.90;;;0.60;1945.60;;;;;;4910556;29;20390;-68
2021/01/14 02:56:08;;;;;;;14.20;8.32;;;0.70;1971.20;;;;;;4914732;29;20035;-70
2021/01/14 02:58:34;;;;;;;25.05;9.57;;;0.70;1945.60;;;;;;4914070;29;20039;-70
2021/01/14 03:01:00;;;;;;;18.33;8.20;;;0.60;1971.20;;;;;;4913317;29;20359;-68
2021/01/14 03:03:26;;;;;;;13.10;7.82;;;0.60;1945.60;;;;;;4915616;29;20036;-69
2021/01/14 03:05:52;;;;;;;13.10;8.00;;;0.60;1971.20;;;;;;4918030;29;20031;-68
2021/01/14 03:08:17;;;;;;;12.20;7.18;;;0.50;1971.20;;;;;;4918101;29;20039;-69
2021/01/14 03:10:44;;;;;;;15.43;7.78;;;0.50;1971.20;;;;;;4917592;29;20512;-69
2021/01/14 03:13:10;;;;;;;14.70;7.43;;;0.50;1996.80;;;;;;4916601;29;20028;-70
2021/01/14 03:15:36;;;;;;;10.35;6.13;;;0.50;1996.80;;;;;;4917771;29;20032;-70
2021/01/14 03:18:03;;;;;;;12.07;6.18;;;0.40;1971.20;;;;;;4918649;29;20050;-69
2021/01/14 03:20:29;;;;;;;9.65;5.30;;;0.40;1971.20;;;;;;4917860;29;20474;-70
2021/01/14 03:22:55;;;;;;;10.48;5.70;;;0.40;1996.80;;;;;;4917650;29;20032;-70
2021/01/14 03:25:20;;;;;;;9.50;5.78;;;25.60;1945.60;;;;;;4918237;29;20438;-69
2021/01/14 03:27:46;;;;;;;17.83;5.90;;;0.40;1971.20;;;;;;4917372;29;20059;-69
2021/01/14 03:30:14;;;;;;;13.48;6.22;;;0.40;1945.60;;;;;;4918361;29;20032;-70
2021/01/14 03:32:40;;;;;;;13.40;6.30;;;0.40;1945.60;;;;;;4916841;29;20427;-67
2021/01/14 03:35:07;;;;;;;10.63;6.28;;;0.40;1971.20;;;;;;4918264;29;20032;-69
2021/01/14 03:37:37;;;;;;;12.10;6.45;;;0.40;1945.60;;;;;;4902025;29;20111;-68
2021/01/14 03:40:04;;;;;;;11.95;6.57;;;0.30;1971.20;;;;;;4918693;29;20091;-69
2021/01/14 03:42:30;;;;;;;13.40;7.20;;;0.30;1971.20;;;;;;4914172;29;20028;-69
2021/01/14 03:44:55;;;;;;;13.60;7.05;;;0.40;1971.20;;;;;;4902814;29;20498;-69
2021/01/14 03:47:23;;;;;;;15.10;7.20;;;0.40;1945.60;;;;;;4917022;29;20032;-68
2021/01/14 03:49:49;;;;;;;12.02;6.82;;;0.40;1971.20;;;;;;4918005;29;20024;-69
2021/01/14 03:52:15;;;;;;;14.98;8.10;;;0.40;1971.20;;;;;;4916966;29;20573;-70
2021/01/14 03:54:40;;;;;;;11.68;6.85;;;0.40;1971.20;;;;;;4917193;29;20474;-69
2021/01/14 03:57:06;;;;;;;12.90;5.85;;;0.40;1996.80;;;;;;4917285;29;20039;-71
2021/01/14 03:59:32;;;;;;;10.55;5.95;;;0.40;1920.00;;;;;;4917414;29;20040;-70
2021/01/14 04:02:06;;;;;;;9.32;5.60;;;0.40;1971.20;;;;;;4916331;29;20502;-68
2021/01/14 04:04:35;;;;;;;20.27;6.35;;;0.40;1920.00;;;;;;4916585;29;20042;-70
2021/01/14 04:07:01;;;;;;;9.60;5.22;;;0.50;1894.40;;;;;;4900536;29;20484;-69
2021/01/14 04:09:27;;;;;;;10.57;5.63;;;0.50;1868.80;;;;;;4918083;29;20050;-70
2021/01/14 04:11:53;;;;;;;13.07;6.10;;;0.50;1894.40;;;;;;4916359;29;20028;-69
2021/01/14 04:14:20;;;;;;;10.48;6.03;;;0.50;1894.40;;;;;;4916393;29;20039;-68
2021/01/14 04:16:49;;;;;;;10.90;5.28;;;0.50;1894.40;;;;;;4917224;29;20103;-69
2021/01/14 04:19:15;;;;;;;8.95;5.63;;;0.50;1894.40;;;;;;4913879;29;20122;-69
2021/01/14 04:21:40;;;;;;;18.65;6.13;;;0.40;1920.00;;;;;;4919432;29;20111;-73
2021/01/14 04:24:06;;;;;;;11.15;5.70;;;0.30;1945.60;;;;;;4916984;29;20035;-68
2021/01/14 04:26:33;;;;;;;21.75;7.88;;;0.30;1920.00;;;;;;4917098;29;20048;-68
2021/01/14 04:28:58;;;;;;;11.52;7.35;;;0.20;1971.20;;;;;;4915637;29;20135;-70
2021/01/14 04:31:24;;;;;;;12.45;7.20;;;0.30;1920.00;;;;;;4917250;29;20037;-70
2021/01/14 04:33:49;;;;;;;10.32;6.18;;;0.30;1945.60;;;;;;4915821;29;20034;-70
2021/01/14 04:36:16;;;;;;;15.40;6.32;;;0.50;1920.00;;;;;;4915037;29;20060;-69
2021/01/14 04:38:43;;;;;;;15.02;7.60;;;0.50;1945.60;;;;;;4892589;29;20104;-70
2021/01/14 04:41:08;;;;;;;33.47;14.07;;;0.60;1945.60;;;;;;4916430;29;20032;-70
2021/01/14 04:43:34;;;;;;;35.10;12.30;;;0.60;1920.00;;;;;;4915147;29;20205;-69
2021/01/14 04:46:08;;;;;;;14.57;7.30;;;0.70;1945.60;;;;;;4916360;29;20076;-70
2021/01/14 04:48:40;;;;;;;;;;;0.70;1894.40;;;;;;4916158;29;20032;-68
2021/01/14 04:51:11;;;;;;;13.57;6.00;;;0.80;1920.00;;;;;;4916740;29;19911;-70
2021/01/14 04:53:39;;;;;;;12.52;5.85;;;0.80;1920.00;;;;;;4915811;29;20024;-70
2021/01/14 04:56:06;;;;;;;17.80;6.32;;;0.80;1792.00;;;;;;4914806;29;20032;-69
2021/01/14 04:58:37;;;;;;;11.02;6.13;;;0.90;1920.00;;;;;;4915995;29;20031;-69
2021/01/14 05:01:27;;;;;;;10.80;5.47;;;0.90;1843.20;;;;;;4915003;29;20032;-70
2021/01/14 05:03:54;;;;;;;9.60;5.97;;;0.90;1817.60;;;;;;4808726;29;20051;-69
2021/01/14 05:06:23;;;;;;;14.63;6.00;;;0.80;1894.40;;;;;;4813630;29;20046;-68
2021/01/14 05:09:18;;;;;;;12.30;5.93;;;0.80;1945.60;;;;;;4819227;29;20041;-70
2021/01/14 05:11:45;;;;;;;8.95;5.47;;;0.90;1920.00;;;;;;4818120;29;20436;-68
2021/01/14 05:14:11;;;;;;;11.75;5.13;;;0.90;1868.80;;;;;;4820027;29;20038;-67
2021/01/14 05:16:36;;;;;;;18.17;6.18;;;0.90;1792.00;;;;;;4821630;29;20553;-68
2021/01/14 05:19:02;;;;;;;11.27;6.28;;;25.60;1868.80;;;;;;4825429;29;20111;-68
2021/01/14 05:21:34;;;;;;;14.55;6.30;;;25.60;1920.00;;;;;;4821194;29;20034;-69
2021/01/14 05:24:15;;;;;;;11.13;5.28;;;25.60;1945.60;;;;;;4819781;29;20038;-68
2021/01/14 05:26:44;;;;;;;11.07;5.53;;;25.70;1868.80;;;;;;4824202;29;20061;-69
2021/01/14 05:29:20;;;;;;;7.55;5.15;;;25.70;1817.60;;;;;;4801868;29;20891;-68
2021/01/14 05:31:48;;;;;;;9.10;5.32;;;25.60;1817.60;;;;;;4785235;29;20162;-71
2021/01/14 05:34:15;;;;;;;9.48;4.88;;;25.60;1894.40;;;;;;4783803;29;20084;-71
2021/01/14 05:36:57;;;;;;;16.95;5.55;;;25.90;1843.20;;;;;;4789731;29;20069;-68
2021/01/14 05:39:24;;;;;;;16.42;6.13;;;0.90;1920.00;;;;;;4789931;29;20030;-68
2021/01/14 05:41:51;;;;;;;11.70;5.20;;;0.80;1894.40;;;;;;4870610;29;20075;-71
2021/01/14 05:44:18;;;;;;;11.13;6.10;;;25.70;1945.60;;;;;;4891308;29;20048;-69
2021/01/14 05:46:43;;;;;;;10.55;5.47;;;25.70;1920.00;;;;;;4892087;29;20058;-70
2021/01/14 05:49:11;;;;;;;11.88;5.75;;;25.90;1868.80;;;;;;4915207;29;20025;-73
2021/01/14 05:51:37;;;;;;;15.85;5.65;;;25.80;1843.20;;;;;;4878562;29;20028;-70
2021/01/14 05:54:11;;;;;;;11.00;6.53;;;25.80;1868.80;;;;;;4875249;29;20037;-68
2021/01/14 05:56:46;;;;;;;18.83;8.60;;;0.60;1868.80;;;;;;4876822;29;20027;-69
2021/01/14 05:59:14;;;;;;;12.57;6.85;;;26.00;1817.60;;;;;;4871734;29;20103;-67
2021/01/14 06:02:06;;;;;;;12.75;7.10;;;25.90;1894.40;;;;;;4897901;29;20366;-70
2021/01/14 06:04:31;;;;;;;22.33;11.52;;;25.90;1817.60;;;;;;4875023;29;20095;-71
2021/01/14 06:07:04;;;;;;;22.25;11.95;;;25.90;1843.20;;;;;;4894112;29;20147;-68
2021/01/14 06:09:40;;;;;;;16.50;7.88;;;25.90;1843.20;;;;;;4885331;29;20076;-71
2021/01/14 06:12:08;;;;;;;12.32;6.50;;;26.00;1792.00;;;;;;4880070;29;20040;-71
2021/01/14 06:14:34;;;;;;;14.98;5.00;;;26.00;1766.40;;;;;;4875649;29;20032;-71
2021/01/14 06:17:08;;;;;;;11.77;6.03;;;26.10;1740.80;;;;;;4878449;29;20040;-71
2021/01/14 06:19:34;;;;;;;13.63;5.63;;;26.10;1740.80;;;;;;4862488;29;20058;-71
2021/01/14 06:22:01;;;;;;;18.95;6.90;;;26.10;1715.20;;;;;;4879023;29;20028;-70
2021/01/14 06:24:28;;;;;;;17.13;8.23;;;26.20;1792.00;;;;;;4880909;29;20047;-70
2021/01/14 06:26:58;;;;;;;17.90;9.90;;;26.10;1817.60;;;;;;4878407;29;20131;-71
2021/01/14 06:29:28;;;;;;;15.25;9.38;;;26.00;1868.80;;;;;;4878917;29;20068;-70
2021/01/14 06:32:17;;;;;;;26.20;11.88;;;25.90;1894.40;;;;;;4879131;29;20564;-71
2021/01/14 06:34:51;;;;;;;31.38;13.82;;;25.70;1920.00;;;;;;4875737;29;20512;-71
2021/01/14 06:37:23;;;;;;;;;;;25.60;1945.60;;;;;;4876693;29;20655;-70
2021/01/14 06:39:57;;;;;;;25.17;10.35;;;0.90;1920.00;;;;;;4882164;29;19982;-71
2021/01/14 06:42:23;;;;;;;21.23;11.93;;;25.60;1894.40;;;;;;4882878;29;20310;-72
2021/01/14 06:45:01;;;;;;;31.90;14.45;;;25.70;1971.20;;;;;;4882360;29;20577;-71
2021/01/14 06:47:32;;;;;;;33.60;14.57;;;25.70;1945.60;;;;;;4882987;29;20832;-70
2021/01/14 06:50:16;;;;;;;31.05;14.27;;;25.80;1945.60;;;;;;4882595;29;20028;-70
2021/01/14 06:52:48;;;;;;;33.88;15.68;;;25.80;1920.00;;;;;;4910269;29;20124;-69
2021/01/14 06:55:15;;;;;;;23.80;11.55;;;25.80;1945.60;;;;;;4900305;29;20115;-70
2021/01/14 06:57:56;;;;;;;29.00;13.18;;;25.90;1894.40;;;;;;4893061;29;20032;-70
2021/01/14 07:00:22;;;;;;;34.83;15.10;;;26.00;2048.00;;;;;;4886439;29;20044;-72
2021/01/14 07:03:19;;;;;;;40.03;16.27;;;26.00;2022.40;;;;;;4887240;29;20040;-74
2021/01/14 07:05:54;;;;;;;45.00;21.65;;;26.10;2022.40;;;;;;4884354;29;20039;-74
2021/01/14 07:08:39;;;;;;;41.65;19.40;;;26.10;1945.60;;;;;;4883004;29;20035;-70
2021/01/14 07:11:17;;;;;;;41.67;20.65;;;26.30;1971.20;;;;;;4898920;29;20115;-70
2021/01/14 07:13:45;;;;;;;39.45;21.85;;;26.20;1996.80;;;;;;4883254;29;20043;-70
2021/01/14 07:16:14;;;;;;;46.60;25.13;;;26.20;1945.60;;;;;;4918532;29;20474;-67
2021/01/14 07:18:41;;;;;;;47.65;24.23;;;26.20;1996.80;;;;;;4925429;29;20060;-69
2021/01/14 07:21:25;;;;;;;137.90;56.58;;;26.20;2099.20;;;;;;4914521;29;20048;-69
2021/01/14 07:24:08;;;;;;;51.90;25.77;;;26.20;1996.80;;;;;;4886506;29;20044;-69
2021/01/14 07:26:35;;;;;;;80.18;44.05;;;26.30;2022.40;;;;;;4880495;29;20028;-69
2021/01/14 07:29:04;;;;;;;39.83;23.08;;;26.30;2048.00;;;;;;4881203;29;20786;-69
2021/01/14 07:31:31;;;;;;;43.30;26.73;;;26.30;1971.20;;;;;;4883486;29;20028;-70
2021/01/14 07:33:59;;;;;;;32.47;16.08;;;26.30;1945.60;;;;;;4883817;29;20042;-69
2021/01/14 07:36:26;;;;;;;24.83;15.20;;;25.90;1971.20;;;;;;4883371;29;20035;-70
2021/01/14 07:38:57;;;;;;;26.98;14.73;;;26.40;1920.00;;;;;;4881304;29;20143;-69
2021/01/14 07:41:29;;;;;;;37.17;16.75;;;26.40;1920.00;;;;;;4910232;29;20114;-70
2021/01/14 07:43:55;;;;;;;30.08;13.90;;;26.40;1971.20;;;;;;4882237;29;20059;-70
2021/01/14 07:46:27;;;;;;;30.23;16.52;;;26.40;1920.00;;;;;;4883503;29;20059;-75
2021/01/14 07:48:53;;;;;;;63.05;30.65;;;26.40;1920.00;;;;;;4885189;29;20066;-69
2021/01/14 07:51:20;;;;;;;56.13;29.77;;;26.30;1945.60;;;;;;4899077;29;20033;-73
2021/01/14 07:54:06;;;;;;;44.88;25.08;;;26.30;1971.20;;;;;;4910530;29;20932;-71
2021/01/14 07:56:44;;;;;;;72.25;35.20;;;26.30;1971.20;;;;;;4886395;29;20028;-71
2021/01/14 07:59:10;;;;;;;94.55;39.40;;;26.30;1996.80;;;;;;4880894;29;20036;-71
2021/01/14 08:02:03;;;;;;;48.40;24.40;;;26.30;1971.20;;;;;;4891729;29;20066;-70
2021/01/14 08:04:29;;;;;;;64.05;31.67;;;26.30;2022.40;;;;;;4892980;29;21003;-69
2021/01/14 08:06:54;;;;;;;42.83;22.60;;;26.30;2073.60;;;;;;4889108;29;20028;-70
2021/01/14 08:09:22;;;;;;;35.03;21.92;;;26.30;2099.20;;;;;;4881105;29;20949;-71
2021/01/14 08:11:48;;;;;;;25.80;18.20;;;26.50;2150.40;;;;;;4880652;29;20024;-75
2021/01/14 08:14:22;;;;;;;24.90;20.58;;;26.20;2201.60;;;;;;4879607;29;20072;-70
2021/01/14 08:16:50;;;;;;;;;;;26.10;2201.60;;;;;;4878915;29;20032;-71
2021/01/14 08:19:22;;;;;;;22.15;11.95;;;26.20;2201.60;;;;;;4894506;29;19966;-72
2021/01/14 08:22:17;;;;;;;21.77;15.05;;;26.10;2201.60;;;;;;4909664;29;20040;-71
2021/01/14 08:24:59;;;;;;;26.35;13.93;;;26.00;2201.60;;;;;;4915125;29;20044;-72
2021/01/14 08:27:36;;;;;;;30.10;20.52;;;25.90;2201.60;;;;;;4901394;29;20390;-70
2021/01/14 08:30:24;;;;;;;19.08;12.38;;;26.00;2201.60;;;;;;4880174;29;20542;-73
2021/01/14 08:33:08;;;;;;;19.25;12.55;;;26.00;2201.60;;;;;;4916232;29;20013;-71
2021/01/14 08:35:41;;;;;;;25.40;15.27;;;25.90;2201.60;;;;;;4918601;29;20064;-70
2021/01/14 08:38:13;;;;;;;29.25;18.65;;;26.10;2201.60;;;;;;4919525;29;20395;-70
2021/01/14 08:40:40;;;;;;;23.55;15.75;;;26.20;2201.60;;;;;;4910642;29;20482;-69
2021/01/14 08:43:14;;;;;;;20.67;12.73;;;26.30;2201.60;;;;;;4888611;29;20051;-71
2021/01/14 08:45:47;;;;;;;18.55;12.23;;;26.30;2201.60;;;;;;4932639;29;20024;-70
2021/01/14 08:48:22;;;;;;;;;;;26.20;2201.60;;;;;;4923912;29;20083;-72
2021/01/14 08:51:07;;;;;;;18.52;10.77;;;26.10;2201.60;;;;;;4932627;29;19911;-71
2021/01/14 08:53:35;;;;;;;16.88;11.45;;;26.10;2201.60;;;;;;4912529;29;20115;-71
2021/01/14 08:56:14;;;;;;;18.50;11.38;;;25.80;2201.60;;;;;;4919720;29;20036;-70
2021/01/14 08:58:48;;;;;;;29.73;16.38;;;25.90;2201.60;;;;;;4886392;29;20032;-77
2021/01/14 09:01:15;;;;;;;32.65;16.63;;;25.90;2201.60;;;;;;4902739;29;20024;-77
2021/01/14 09:03:42;;;;;;;38.63;19.05;;;25.90;2201.60;;;;;;4879937;29;20040;-69
2021/01/14 09:06:11;;;;;;;48.20;26.70;;;25.90;2201.60;;;;;;4927482;29;20030;-71
2021/01/14 09:08:54;;;;;;;55.28;28.92;;;26.10;2201.60;;;;;;4917224;29;20024;-71
2021/01/14 09:11:34;;;;;;;39.40;20.42;;;26.10;2201.60;;;;;;4903263;29;20032;-75
2021/01/14 09:14:05;;;;;;;44.92;20.60;;;26.20;2201.60;;;;;;4903619;29;20036;-71
2021/01/14 09:16:31;;;;;;;37.25;20.73;;;26.30;2201.60;;;;;;4886479;29;20028;-71
2021/01/14 09:18:57;;;;;;;35.60;18.15;;;51.50;2227.20;;;;;;4873308;29;20132;-71
2021/01/14 09:21:23;;;;;;;29.50;17.30;;;26.50;2201.60;;;;;;4870135;29;20572;-69
2021/01/14 09:24:05;;;;;;;31.85;18.00;;;51.20;2227.20;;;;;;4872584;29;20155;-72
2021/01/14 09:26:31;;;;;;;40.00;18.52;;;51.30;2227.20;;;;;;4873017;29;20032;-70
2021/01/14 09:28:57;;;;;;;29.65;14.18;;;51.50;2227.20;;;;;;4868347;29;20035;-73
2021/01/14 09:31:22;;;;;;;28.30;14.88;;;51.40;2227.20;;;;;;4871286;29;20348;-70
2021/01/14 09:33:50;;;;;;;24.98;14.45;;;51.50;2227.20;;;;;;4869110;29;20068;-70
2021/01/14 09:36:22;;;;;;;33.45;15.70;;;51.60;2227.20;;;;;;4869233;29;20362;-70
2021/01/14 09:38:53;;;;;;;31.23;16.83;;;51.70;2227.20;;;;;;4865870;29;20024;-70
2021/01/14 09:41:29;;;;;;;26.50;13.40;;;52.10;2227.20;;;;;;4911663;29;20060;-74
2021/01/14 09:44:13;;;;;;;26.92;14.18;;;51.60;2227.20;;;;;;4860348;29;20151;-71
2021/01/14 09:46:40;;;;;;;32.03;12.32;;;51.70;2227.20;;;;;;4915201;29;20043;-72
2021/01/14 09:49:34;;;;;;;23.92;9.40;;;51.80;2227.20;;;;;;4919478;29;20016;-73
2021/01/14 09:52:00;;;;;;;29.03;10.27;;;51.70;2227.20;;;;;;4932335;29;20039;-71
2021/01/14 09:54:36;;;;;;;25.75;10.63;;;51.80;2227.20;;;;;;4928993;29;20020;-71
2021/01/14 09:57:25;;;;;;;16.30;8.30;;;51.70;2227.20;;;;;;4905360;29;20024;-71
2021/01/14 09:59:52;;;;;;;23.20;11.68;;;51.80;2227.20;;;;;;4973840;23;20084;-71
2021/01/14 10:02:26;;;;;;;18.33;9.68;;;51.80;2227.20;;;;;;4921485;29;20035;-70
2021/01/14 10:04:57;;;;;;;19.70;10.43;;;51.80;2227.20;;;;;;4933739;28;20047;-72
2021/01/14 10:07:53;;;;;;;15.55;9.95;;;51.80;2227.20;;;;;;4955202;28;20067;-72
2021/01/14 10:10:45;;;;;;;14.85;9.63;;;51.90;2227.20;;;;;;4943462;28;20022;-70
2021/01/14 10:13:15;;;;;;;31.52;17.30;;;52.00;2227.20;;;;;;4924507;28;20129;-77
2021/01/14 10:15:42;;;;;;;15.30;9.13;;;52.10;2227.20;;;;;;4904287;29;20860;-76
2021/01/14 10:18:24;;;;;;;32.78;15.82;;;76.90;2227.20;;;;;;4899660;29;20838;-70
2021/01/14 10:20:58;;;;;;;16.02;9.75;;;76.90;2227.20;;;;;;4903373;29;20169;-71
2021/01/14 10:23:25;;;;;;;20.38;12.20;;;76.80;2227.20;;;;;;4899694;29;20039;-70
2021/01/14 10:25:55;;;;;;;16.13;11.50;;;76.80;2201.60;;;;;;4900580;29;20462;-70
2021/01/14 10:28:22;;;;;;;18.48;12.32;;;51.40;2227.20;;;;;;4898000;29;20036;-70
2021/01/14 10:30:48;;;;;;;17.55;12.40;;;52.10;2227.20;;;;;;4907442;29;20893;-73
2021/01/14 10:33:14;;;;;;;27.10;15.13;;;76.80;2201.60;;;;;;4907075;29;20593;-70
2021/01/14 10:35:40;;;;;;;23.55;15.70;;;76.90;2201.60;;;;;;4906120;29;20887;-75
2021/01/14 10:38:14;;;;;;;24.20;15.05;;;76.90;2201.60;;;;;;4921685;29;20046;-70
2021/01/14 10:40:44;;;;;;;38.35;20.67;;;52.00;2201.60;;;;;;4944691;28;20087;-71
2021/01/14 10:43:15;;;;;;;25.92;16.23;;;51.70;2227.20;;;;;;4931650;28;20087;-71
2021/01/14 10:45:50;;;;;;;33.05;19.75;;;51.50;2227.20;;;;;;4939201;28;20046;-72
2021/01/14 10:48:17;;;;;;;32.80;20.33;;;51.40;2227.20;;;;;;4910933;29;20023;-70
2021/01/14 10:50:55;;;;;;;32.03;20.52;;;51.20;2227.20;;;;;;4915500;29;20728;-73
2021/01/14 10:53:33;;;;;;;27.88;17.50;;;51.20;2227.20;;;;;;4905580;29;20058;-70
2021/01/14 10:56:10;;;;;;;33.20;22.33;;;26.30;2201.60;;;;;;4899927;29;21985;-76
2021/01/14 10:58:38;;;;;;;30.90;21.10;;;26.30;2201.60;;;;;;4900136;29;20062;-70
2021/01/14 11:01:18;;;;;;;38.35;24.10;;;26.10;2201.60;;;;;;4902789;29;20024;-72
2021/01/14 11:03:44;;;;;;;27.63;18.35;;;26.20;2201.60;;;;;;4903021;29;20039;-70
2021/01/14 11:06:37;;;;;;;29.55;18.50;;;26.30;2201.60;;;;;;4925260;29;20024;-71
2021/01/14 11:09:25;;;;;;;40.88;24.17;;;26.30;2201.60;;;;;;4937211;29;20012;-71
2021/01/14 11:12:11;;;;;;;30.55;18.75;;;26.40;2201.60;;;;;;4940716;28;20149;-71
2021/01/14 11:14:42;;;;;;;;;;;51.20;2227.20;;;;;;4946977;28;20063;-70
2021/01/14 11:17:08;;;;;;;27.23;17.17;;;51.30;2227.20;;;;;;4918526;29;19949;-74
2021/01/14 11:19:34;;;;;;;24.90;15.70;;;51.40;2227.20;;;;;;4918368;29;20119;-71
2021/01/14 11:22:13;;;;;;;41.90;26.65;;;51.50;2227.20;;;;;;4903797;28;20039;-73
2021/01/14 11:24:41;;;;;;;26.73;17.25;;;51.60;2227.20;;;;;;4951058;28;20043;-71
2021/01/14 11:27:07;;;;;;;28.48;17.63;;;51.80;2227.20;;;;;;4908142;28;20032;-74
2021/01/14 11:29:33;;;;;;;29.27;16.73;;;76.80;2201.60;;;;;;4905698;29;20048;-70
2021/01/14 11:32:00;;;;;;;33.35;19.65;;;52.10;2176.00;;;;;;4901948;29;20790;-71
2021/01/14 11:34:26;;;;;;;25.20;16.48;;;76.80;2176.00;;;;;;4897746;29;20036;-70
2021/01/14 11:36:52;;;;;;;22.17;15.38;;;52.10;2150.40;;;;;;4899447;29;20024;-72
2021/01/14 11:39:18;;;;;;;31.92;20.15;;;76.80;2150.40;;;;;;4897744;29;20039;-71
2021/01/14 11:41:43;;;;;;;35.00;21.75;;;76.80;2124.80;;;;;;4898971;29;20028;-69
2021/01/14 11:44:09;;;;;;;24.92;16.73;;;76.90;2099.20;;;;;;4894537;29;20884;-70
2021/01/14 11:46:35;;;;;;;22.30;15.02;;;76.90;2099.20;;;;;;4900999;29;20807;-70
2021/01/14 11:49:00;;;;;;;22.73;16.15;;;77.00;2099.20;;;;;;4883927;29;20143;-71
2021/01/14 11:51:27;;;;;;;27.58;17.83;;;77.10;2073.60;;;;;;4912241;29;20020;-78
2021/01/14 11:53:52;;;;;;;23.88;15.75;;;77.10;2099.20;;;;;;4924641;29;20042;-73
2021/01/14 11:56:20;;;;;;;21.02;14.75;;;77.10;2099.20;;;;;;4898908;29;20059;-71
2021/01/14 11:58:46;;;;;;;21.90;14.30;;;77.10;2099.20;;;;;;4918445;29;20580;-72
2021/01/14 12:01:11;;;;;;;22.52;15.00;;;77.00;2073.60;;;;;;4912217;29;20011;-76
2021/01/14 12:03:40;;;;;;;21.40;14.40;;;76.90;2099.20;;;;;;4924193;29;20138;-71
2021/01/14 12:06:05;;;;;;;22.15;15.25;;;76.90;2099.20;;;;;;4930015;29;20031;-73
2021/01/14 12:08:31;;;;;;;22.08;14.52;;;77.00;2073.60;;;;;;4914195;29;20070;-71
2021/01/14 12:10:57;;;;;;;18.88;13.23;;;77.00;2073.60;;;;;;4916952;29;20038;-74
2021/01/14 12:13:23;;;;;;;24.58;14.82;;;76.90;2073.60;;;;;;4927801;28;20039;-73
2021/01/14 12:15:51;;;;;;;27.35;14.70;;;52.10;2099.20;;;;;;4919967;29;20012;-70
2021/01/14 12:18:24;;;;;;;19.90;13.70;;;52.00;2124.80;;;;;;4937363;28;20030;-71
2021/01/14 12:20:49;;;;;;;21.30;13.35;;;51.90;2124.80;;;;;;4941732;28;20035;-71
2021/01/14 12:23:18;;;;;;;19.88;13.75;;;51.90;2124.80;;;;;;4901934;29;20043;-78
2021/01/14 12:25:47;;;;;;;22.80;14.63;;;77.10;2099.20;;;;;;4907310;29;20110;-70
2021/01/14 12:28:13;;;;;;;21.42;14.43;;;76.80;2124.80;;;;;;4901725;29;20035;-70
2021/01/14 12:30:42;;;;;;;18.75;13.52;;;76.80;2124.80;;;;;;4936731;29;20012;-74
2021/01/14 12:33:10;;;;;;;24.73;13.90;;;52.10;2124.80;;;;;;4906481;29;20027;-71